sensor_id;sensor_type;location;lat;lon;timestamp;temperature;humidity
1063;DHT22;520;50.932;6.962;2023-10-08T00:02:50;20.60;90.70
1063;DHT22;520;50.932;6.962;2023-10-08T00:05:48;20.60;90.80
1063;DHT22;520;50.932;6.962;2023-10-08T00:08:56;21.10;91.10
1063;DHT22;520;50.932;6.962;2023-10-08T00:11:56;20.60;90.80
1063;DHT22;520;50.932;6.962;2023-10-08T00:14:41;20.50;91.00
1063;DHT22;520;50.932;6.962;2023-10-08T00:18:19;20.60;91.00
1063;DHT22;520;50.932;6.962;2023-10-08T00:21:04;20.50;90.90
1063;DHT22;520;50.932;6.962;2023-10-08T00:23:47;20.50;91.00
1063;DHT22;520;50.932;6.962;2023-10-08T00:27:02;20.40;91.00
1063;DHT22;520;50.932;6.962;2023-10-08T00:29:47;20.40;91.20
1063;DHT22;520;50.932;6.962;2023-10-08T00:32:57;20.40;91.20
1063;DHT22;520;50.932;6.962;2023-10-08T00:35:47;20.60;91.40
1063;DHT22;520;50.932;6.962;2023-10-08T00:41:15;20.30;91.40
1063;DHT22;520;50.932;6.962;2023-10-08T00:44:07;20.80;91.70
1063;DHT22;520;50.932;6.962;2023-10-08T00:47:03;20.30;91.80
1063;DHT22;520;50.932;6.962;2023-10-08T00:50:00;20.20;91.50
1063;DHT22;520;50.932;6.962;2023-10-08T00:53:15;20.20;91.50
1063;DHT22;520;50.932;6.962;2023-10-08T00:56:21;20.20;91.60
1063;DHT22;520;50.932;6.962;2023-10-08T00:59:51;20.20;91.60
1063;DHT22;520;50.932;6.962;2023-10-08T01:03:05;20.10;91.60
1063;DHT22;520;50.932;6.962;2023-10-08T01:06:07;20.10;91.70
1063;DHT22;520;50.932;6.962;2023-10-08T01:09:11;20.10;91.80
1063;DHT22;520;50.932;6.962;2023-10-08T01:12:35;20.00;91.70
1063;DHT22;520;50.932;6.962;2023-10-08T01:16:05;20.10;91.80
1063;DHT22;520;50.932;6.962;2023-10-08T01:18:58;20.10;91.70
1063;DHT22;520;50.932;6.962;2023-10-08T01:21:50;20.00;91.80
1063;DHT22;520;50.932;6.962;2023-10-08T01:24:54;20.00;91.80
1063;DHT22;520;50.932;6.962;2023-10-08T01:31:19;20.00;91.80
1063;DHT22;520;50.932;6.962;2023-10-08T01:34:10;19.90;91.80
1063;DHT22;520;50.932;6.962;2023-10-08T01:37:21;19.90;91.80
1063;DHT22;520;50.932;6.962;2023-10-08T01:40:46;19.90;91.90
1063;DHT22;520;50.932;6.962;2023-10-08T01:43:52;19.80;91.90
1063;DHT22;520;50.932;6.962;2023-10-08T01:47:02;19.70;91.80
1063;DHT22;520;50.932;6.962;2023-10-08T01:49:52;19.70;91.90
1063;DHT22;520;50.932;6.962;2023-10-08T01:52:41;19.70;91.90
1063;DHT22;520;50.932;6.962;2023-10-08T01:55:41;19.60;91.80
1063;DHT22;520;50.932;6.962;2023-10-08T01:59:05;19.60;91.90
1063;DHT22;520;50.932;6.962;2023-10-08T02:02:01;19.60;92.00
1063;DHT22;520;50.932;6.962;2023-10-08T02:04:55;19.60;91.90
1063;DHT22;520;50.932;6.962;2023-10-08T02:08:08;19.60;92.00
1063;DHT22;520;50.932;6.962;2023-10-08T02:11:02;19.50;91.90
1063;DHT22;520;50.932;6.962;2023-10-08T02:14:04;19.30;91.90
1063;DHT22;520;50.932;6.962;2023-10-08T02:17:03;19.30;92.00
1063;DHT22;520;50.932;6.962;2023-10-08T02:20:15;19.50;92.10
1063;DHT22;520;50.932;6.962;2023-10-08T02:23:06;19.40;92.20
1063;DHT22;520;50.932;6.962;2023-10-08T02:31:43;19.30;92.20
1063;DHT22;520;50.932;6.962;2023-10-08T02:34:41;19.40;92.30
1063;DHT22;520;50.932;6.962;2023-10-08T02:37:45;19.40;92.40
1063;DHT22;520;50.932;6.962;2023-10-08T02:40:45;19.30;92.20
1063;DHT22;520;50.932;6.962;2023-10-08T02:43:43;19.40;92.40
1063;DHT22;520;50.932;6.962;2023-10-08T02:46:37;19.40;92.30
1063;DHT22;520;50.932;6.962;2023-10-08T02:49:40;19.30;92.20
1063;DHT22;520;50.932;6.962;2023-10-08T02:52:40;19.30;92.40
1063;DHT22;520;50.932;6.962;2023-10-08T02:55:32;19.30;92.20
1063;DHT22;520;50.932;6.962;2023-10-08T02:58:41;19.30;92.20
1063;DHT22;520;50.932;6.962;2023-10-08T03:01:30;19.30;92.20
1063;DHT22;520;50.932;6.962;2023-10-08T03:04:25;19.30;92.30
1063;DHT22;520;50.932;6.962;2023-10-08T03:07:17;19.30;92.00
1063;DHT22;520;50.932;6.962;2023-10-08T03:10:22;19.40;92.10
1063;DHT22;520;50.932;6.962;2023-10-08T03:13:33;19.40;91.90
1063;DHT22;520;50.932;6.962;2023-10-08T03:16:33;19.40;92.00
1063;DHT22;520;50.932;6.962;2023-10-08T03:19:32;19.40;91.90
1063;DHT22;520;50.932;6.962;2023-10-08T03:22:24;19.40;91.90
1063;DHT22;520;50.932;6.962;2023-10-08T03:25:12;19.30;91.90
1063;DHT22;520;50.932;6.962;2023-10-08T03:31:31;19.30;92.00
1063;DHT22;520;50.932;6.962;2023-10-08T03:34:29;19.20;92.10
1063;DHT22;520;50.932;6.962;2023-10-08T03:37:25;19.30;92.00
1063;DHT22;520;50.932;6.962;2023-10-08T03:40:31;19.30;91.90
1063;DHT22;520;50.932;6.962;2023-10-08T03:46:59;19.20;91.90
1063;DHT22;520;50.932;6.962;2023-10-08T03:49:56;19.20;92.00
1063;DHT22;520;50.932;6.962;2023-10-08T03:52:56;19.10;92.00
1063;DHT22;520;50.932;6.962;2023-10-08T03:56:00;19.10;92.10
1063;DHT22;520;50.932;6.962;2023-10-08T03:58:58;19.00;92.00
1063;DHT22;520;50.932;6.962;2023-10-08T04:01:54;19.20;92.60
1063;DHT22;520;50.932;6.962;2023-10-08T04:04:44;19.10;92.20
1063;DHT22;520;50.932;6.962;2023-10-08T04:07:32;19.10;92.20
1063;DHT22;520;50.932;6.962;2023-10-08T04:10:43;18.90;92.10
1063;DHT22;520;50.932;6.962;2023-10-08T04:13:50;19.10;92.30
1063;DHT22;520;50.932;6.962;2023-10-08T04:16:37;19.00;92.20
1063;DHT22;520;50.932;6.962;2023-10-08T04:19:42;19.00;92.30
1063;DHT22;520;50.932;6.962;2023-10-08T04:22:27;19.00;92.30
1063;DHT22;520;50.932;6.962;2023-10-08T04:25:50;19.00;92.40
1063;DHT22;520;50.932;6.962;2023-10-08T04:28:57;19.00;92.40
1063;DHT22;520;50.932;6.962;2023-10-08T04:31:43;19.00;92.40
1063;DHT22;520;50.932;6.962;2023-10-08T04:34:53;19.00;92.40
1063;DHT22;520;50.932;6.962;2023-10-08T04:37:44;19.00;92.50
1063;DHT22;520;50.932;6.962;2023-10-08T04:41:01;19.00;92.40
1063;DHT22;520;50.932;6.962;2023-10-08T04:44:23;19.10;92.60
1063;DHT22;520;50.932;6.962;2023-10-08T04:47:20;19.00;92.60
1063;DHT22;520;50.932;6.962;2023-10-08T04:50:08;18.90;92.60
1063;DHT22;520;50.932;6.962;2023-10-08T04:52:47;18.80;92.60
1063;DHT22;520;50.932;6.962;2023-10-08T04:55:37;18.70;92.80
1063;DHT22;520;50.932;6.962;2023-10-08T04:58:50;18.90;92.90
1063;DHT22;520;50.932;6.962;2023-10-08T05:01:25;18.80;92.70
1063;DHT22;520;50.932;6.962;2023-10-08T05:04:24;18.80;92.90
1063;DHT22;520;50.932;6.962;2023-10-08T05:07:49;18.70;92.80
1063;DHT22;520;50.932;6.962;2023-10-08T05:10:43;18.70;92.90
1063;DHT22;520;50.932;6.962;2023-10-08T05:13:51;18.70;92.90
1063;DHT22;520;50.932;6.962;2023-10-08T05:17:17;18.60;93.10
1063;DHT22;520;50.932;6.962;2023-10-08T05:20:37;18.60;93.00
1063;DHT22;520;50.932;6.962;2023-10-08T05:23:45;18.70;93.20
1063;DHT22;520;50.932;6.962;2023-10-08T05:26:48;18.70;93.00
1063;DHT22;520;50.932;6.962;2023-10-08T05:30:02;18.70;93.10
1063;DHT22;520;50.932;6.962;2023-10-08T05:33:43;18.60;93.00
1063;DHT22;520;50.932;6.962;2023-10-08T05:37:05;18.60;93.00
1063;DHT22;520;50.932;6.962;2023-10-08T05:39:59;18.50;93.00
1063;DHT22;520;50.932;6.962;2023-10-08T05:43:03;18.50;93.20
1063;DHT22;520;50.932;6.962;2023-10-08T05:56:17;19.00;93.70
1063;DHT22;520;50.932;6.962;2023-10-08T05:59:29;18.60;93.50
1063;DHT22;520;50.932;6.962;2023-10-08T06:02:59;18.60;93.50
1063;DHT22;520;50.932;6.962;2023-10-08T06:06:04;18.80;93.50
1063;DHT22;520;50.932;6.962;2023-10-08T06:09:30;18.90;93.30
1063;DHT22;520;50.932;6.962;2023-10-08T06:20:00;18.70;93.50
1063;DHT22;520;50.932;6.962;2023-10-08T06:22:36;18.80;93.70
1063;DHT22;520;50.932;6.962;2023-10-08T06:28:32;18.90;93.30
1063;DHT22;520;50.932;6.962;2023-10-08T06:31:41;18.80;93.30
1063;DHT22;520;50.932;6.962;2023-10-08T06:34:51;18.80;93.40
1063;DHT22;520;50.932;6.962;2023-10-08T06:38:21;18.70;93.40
1063;DHT22;520;50.932;6.962;2023-10-08T06:41:50;18.70;93.60
1063;DHT22;520;50.932;6.962;2023-10-08T06:45:02;18.60;93.60
1063;DHT22;520;50.932;6.962;2023-10-08T06:48:43;18.60;93.70
1063;DHT22;520;50.932;6.962;2023-10-08T06:51:29;18.70;93.70
1063;DHT22;520;50.932;6.962;2023-10-08T06:54:27;18.80;93.80
1063;DHT22;520;50.932;6.962;2023-10-08T06:57:39;18.70;93.60
1063;DHT22;520;50.932;6.962;2023-10-08T07:00:30;18.70;94.00
1063;DHT22;520;50.932;6.962;2023-10-08T07:03:18;18.70;93.90
1063;DHT22;520;50.932;6.962;2023-10-08T07:06:15;18.80;93.80
1063;DHT22;520;50.932;6.962;2023-10-08T07:09:36;18.70;94.00
1063;DHT22;520;50.932;6.962;2023-10-08T07:12:35;18.70;93.90
1063;DHT22;520;50.932;6.962;2023-10-08T07:15:16;18.70;94.00
1063;DHT22;520;50.932;6.962;2023-10-08T07:18:48;18.70;94.00
1063;DHT22;520;50.932;6.962;2023-10-08T07:21:39;18.90;94.00
1063;DHT22;520;50.932;6.962;2023-10-08T07:25:03;18.90;94.00
1063;DHT22;520;50.932;6.962;2023-10-08T07:28:14;18.90;93.90
1063;DHT22;520;50.932;6.962;2023-10-08T07:31:16;18.90;93.90
1063;DHT22;520;50.932;6.962;2023-10-08T07:34:18;18.90;93.90
1063;DHT22;520;50.932;6.962;2023-10-08T07:37:20;19.30;94.10
1063;DHT22;520;50.932;6.962;2023-10-08T07:40:10;19.00;94.00
1063;DHT22;520;50.932;6.962;2023-10-08T07:42:40;19.10;94.00
1063;DHT22;520;50.932;6.962;2023-10-08T07:45:07;19.20;94.00
1063;DHT22;520;50.932;6.962;2023-10-08T07:47:35;19.30;94.00
1063;DHT22;520;50.932;6.962;2023-10-08T07:50:03;19.50;93.60
1063;DHT22;520;50.932;6.962;2023-10-08T07:52:39;19.40;93.40
1063;DHT22;520;50.932;6.962;2023-10-08T07:56:03;19.40;93.50
1063;DHT22;520;50.932;6.962;2023-10-08T08:02:00;19.40;93.70
1063;DHT22;520;50.932;6.962;2023-10-08T08:08:53;19.50;93.70
1063;DHT22;520;50.932;6.962;2023-10-08T08:16:05;19.70;93.50
1063;DHT22;520;50.932;6.962;2023-10-08T08:26:32;19.90;93.30
1063;DHT22;520;50.932;6.962;2023-10-08T08:29:47;20.10;93.10
1063;DHT22;520;50.932;6.962;2023-10-08T08:32:59;19.90;93.20
1063;DHT22;520;50.932;6.962;2023-10-08T08:40:05;20.40;92.50
1063;DHT22;520;50.932;6.962;2023-10-08T08:43:10;19.90;92.90
1063;DHT22;520;50.932;6.962;2023-10-08T08:46:13;19.70;93.60
1063;DHT22;520;50.932;6.962;2023-10-08T08:49:18;19.60;94.00
1063;DHT22;520;50.932;6.962;2023-10-08T08:52:27;19.70;94.20
1063;DHT22;520;50.932;6.962;2023-10-08T08:55:50;20.20;93.60
1063;DHT22;520;50.932;6.962;2023-10-08T08:59:15;20.00;93.50
1063;DHT22;520;50.932;6.962;2023-10-08T09:06:00;19.70;94.00
1063;DHT22;520;50.932;6.962;2023-10-08T09:09:22;20.00;94.20
1063;DHT22;520;50.932;6.962;2023-10-08T09:16:53;19.90;93.60
1063;DHT22;520;50.932;6.962;2023-10-08T09:19:56;20.00;93.90
1063;DHT22;520;50.932;6.962;2023-10-08T09:23:22;20.10;93.90
1063;DHT22;520;50.932;6.962;2023-10-08T09:29:58;20.20;94.20
1063;DHT22;520;50.932;6.962;2023-10-08T09:33:20;20.30;93.60
1063;DHT22;520;50.932;6.962;2023-10-08T09:37:13;20.40;93.70
1063;DHT22;520;50.932;6.962;2023-10-08T09:40:27;20.60;93.90
1063;DHT22;520;50.932;6.962;2023-10-08T09:43:44;20.80;93.60
1063;DHT22;520;50.932;6.962;2023-10-08T09:46:40;20.80;93.40
1063;DHT22;520;50.932;6.962;2023-10-08T09:50:04;20.70;93.40
1063;DHT22;520;50.932;6.962;2023-10-08T09:56:30;20.80;93.10
1063;DHT22;520;50.932;6.962;2023-10-08T09:59:42;20.70;93.40
1063;DHT22;520;50.932;6.962;2023-10-08T10:08:55;21.00;93.80
1063;DHT22;520;50.932;6.962;2023-10-08T10:12:01;20.80;93.40
1063;DHT22;520;50.932;6.962;2023-10-08T10:15:13;21.50;92.80
1063;DHT22;520;50.932;6.962;2023-10-08T10:18:13;21.30;92.90
1063;DHT22;520;50.932;6.962;2023-10-08T10:24:41;21.50;92.70
1063;DHT22;520;50.932;6.962;2023-10-08T10:38:50;20.90;94.00
1063;DHT22;520;50.932;6.962;2023-10-08T10:45:28;20.90;94.70
1063;DHT22;520;50.932;6.962;2023-10-08T10:48:52;21.30;94.70
1063;DHT22;520;50.932;6.962;2023-10-08T10:52:33;21.00;94.20
1063;DHT22;520;50.932;6.962;2023-10-08T10:56:30;21.20;94.10
1063;DHT22;520;50.932;6.962;2023-10-08T11:00:35;21.80;93.50
1063;DHT22;520;50.932;6.962;2023-10-08T11:07:27;21.80;93.10
1063;DHT22;520;50.932;6.962;2023-10-08T11:10:44;22.20;92.90
1063;DHT22;520;50.932;6.962;2023-10-08T11:13:56;22.20;92.20
1063;DHT22;520;50.932;6.962;2023-10-08T11:38:40;21.60;94.50
1063;DHT22;520;50.932;6.962;2023-10-08T11:41:40;22.40;93.90
1063;DHT22;520;50.932;6.962;2023-10-08T11:44:58;22.30;93.00
1063;DHT22;520;50.932;6.962;2023-10-08T11:51:44;22.00;93.70
1063;DHT22;520;50.932;6.962;2023-10-08T11:54:49;22.00;94.10
1063;DHT22;520;50.932;6.962;2023-10-08T11:58:04;22.20;93.60
1063;DHT22;520;50.932;6.962;2023-10-08T12:01:46;22.40;93.50
1063;DHT22;520;50.932;6.962;2023-10-08T12:04:44;23.10;92.60
1063;DHT22;520;50.932;6.962;2023-10-08T12:07:52;23.00;92.30
1063;DHT22;520;50.932;6.962;2023-10-08T12:11:21;22.80;92.30
1063;DHT22;520;50.932;6.962;2023-10-08T12:18:07;22.60;92.70
1063;DHT22;520;50.932;6.962;2023-10-08T12:21:26;22.80;92.50
1063;DHT22;520;50.932;6.962;2023-10-08T12:32:39;22.60;92.60
1063;DHT22;520;50.932;6.962;2023-10-08T12:36:04;22.50;92.90
1063;DHT22;520;50.932;6.962;2023-10-08T12:39:51;22.20;93.60
1063;DHT22;520;50.932;6.962;2023-10-08T12:43:33;22.00;94.00
1063;DHT22;520;50.932;6.962;2023-10-08T12:46:39;21.90;94.20
1063;DHT22;520;50.932;6.962;2023-10-08T12:50:22;22.50;93.90
1063;DHT22;520;50.932;6.962;2023-10-08T12:53:31;22.40;93.20
1063;DHT22;520;50.932;6.962;2023-10-08T12:57:04;22.20;94.00
1063;DHT22;520;50.932;6.962;2023-10-08T13:03:22;22.00;93.90
1063;DHT22;520;50.932;6.962;2023-10-08T13:06:40;21.90;94.60
1063;DHT22;520;50.932;6.962;2023-10-08T13:09:58;22.20;94.50
1063;DHT22;520;50.932;6.962;2023-10-08T13:13:16;22.00;94.50
1063;DHT22;520;50.932;6.962;2023-10-08T13:47:03;22.10;94.60
1063;DHT22;520;50.932;6.962;2023-10-08T13:50:25;22.30;94.30
1063;DHT22;520;50.932;6.962;2023-10-08T13:53:27;22.10;95.10
1063;DHT22;520;50.932;6.962;2023-10-08T14:00:34;22.00;95.40
1063;DHT22;520;50.932;6.962;2023-10-08T14:07:17;22.20;95.30
1063;DHT22;520;50.932;6.962;2023-10-08T14:14:24;22.10;95.60
1063;DHT22;520;50.932;6.962;2023-10-08T14:32:59;21.90;95.50
1063;DHT22;520;50.932;6.962;2023-10-08T14:43:57;22.40;94.60
1063;DHT22;520;50.932;6.962;2023-10-08T14:53:21;21.80;95.60
1063;DHT22;520;50.932;6.962;2023-10-08T15:00:36;22.20;94.50
1063;DHT22;520;50.932;6.962;2023-10-08T15:04:29;21.80;95.30
1063;DHT22;520;50.932;6.962;2023-10-08T15:13:10;21.90;95.70
1063;DHT22;520;50.932;6.962;2023-10-08T15:24:11;21.70;96.60
1063;DHT22;520;50.932;6.962;2023-10-08T15:43:25;21.70;97.00
1063;DHT22;520;50.932;6.962;2023-10-08T15:47:00;21.80;96.60
1063;DHT22;520;50.932;6.962;2023-10-08T15:49:41;21.80;96.60
1063;DHT22;520;50.932;6.962;2023-10-08T15:57:12;21.70;97.20
1063;DHT22;520;50.932;6.962;2023-10-08T16:01:14;21.60;97.20
1063;DHT22;520;50.932;6.962;2023-10-08T16:15:19;21.40;97.80
1063;DHT22;520;50.932;6.962;2023-10-08T16:33:43;21.20;97.60
1063;DHT22;520;50.932;6.962;2023-10-08T17:09:26;21.00;99.20
1063;DHT22;520;50.932;6.962;2023-10-08T17:37:05;20.80;99.90
1063;DHT22;520;50.932;6.962;2023-10-08T17:44:07;20.50;99.90
1063;DHT22;520;50.932;6.962;2023-10-08T18:08:25;20.40;99.90
1063;DHT22;520;50.932;6.962;2023-10-08T18:15:23;20.10;99.90
1063;DHT22;520;50.932;6.962;2023-10-08T18:18:11;20.00;99.90
1063;DHT22;520;50.932;6.962;2023-10-08T18:29:54;19.80;99.90
1063;DHT22;520;50.932;6.962;2023-10-08T18:36:43;19.70;99.90
1063;DHT22;520;50.932;6.962;2023-10-08T18:40:02;19.80;99.90
1063;DHT22;520;50.932;6.962;2023-10-08T18:43:08;19.70;99.90
1063;DHT22;520;50.932;6.962;2023-10-08T18:46:31;19.70;99.90
1063;DHT22;520;50.932;6.962;2023-10-08T18:57:02;19.70;99.90
1063;DHT22;520;50.932;6.962;2023-10-08T19:00:13;19.60;99.90
1063;DHT22;520;50.932;6.962;2023-10-08T19:03:49;19.60;99.90
1063;DHT22;520;50.932;6.962;2023-10-08T19:25:23;19.40;99.90
1063;DHT22;520;50.932;6.962;2023-10-08T19:28:48;19.40;99.90
1063;DHT22;520;50.932;6.962;2023-10-08T19:35:12;19.40;99.90
1063;DHT22;520;50.932;6.962;2023-10-08T19:39:23;19.30;99.90
1063;DHT22;520;50.932;6.962;2023-10-08T19:42:30;19.40;99.90
1063;DHT22;520;50.932;6.962;2023-10-08T19:49:41;19.50;99.90
1063;DHT22;520;50.932;6.962;2023-10-08T19:52:33;19.70;99.90
1063;DHT22;520;50.932;6.962;2023-10-08T20:03:35;19.70;99.90
1063;DHT22;520;50.932;6.962;2023-10-08T20:07:00;19.50;99.90
1063;DHT22;520;50.932;6.962;2023-10-08T20:14:32;19.00;99.90
1063;DHT22;520;50.932;6.962;2023-10-08T20:24:27;18.80;99.90
1063;DHT22;520;50.932;6.962;2023-10-08T20:27:40;18.80;99.90
1063;DHT22;520;50.932;6.962;2023-10-08T20:34:33;18.60;99.90
1063;DHT22;520;50.932;6.962;2023-10-08T20:37:54;18.70;99.90
1063;DHT22;520;50.932;6.962;2023-10-08T20:40:52;18.80;99.90
1063;DHT22;520;50.932;6.962;2023-10-08T20:43:25;18.70;99.90
1063;DHT22;520;50.932;6.962;2023-10-08T20:46:37;18.60;99.90
1063;DHT22;520;50.932;6.962;2023-10-08T20:53:44;18.60;99.90
1063;DHT22;520;50.932;6.962;2023-10-08T20:57:06;18.50;99.90
1063;DHT22;520;50.932;6.962;2023-10-08T21:00:39;18.50;99.90
1063;DHT22;520;50.932;6.962;2023-10-08T21:03:50;18.50;99.90
1063;DHT22;520;50.932;6.962;2023-10-08T21:07:08;18.30;99.90
1063;DHT22;520;50.932;6.962;2023-10-08T21:37:01;18.40;99.90
1063;DHT22;520;50.932;6.962;2023-10-08T21:40:30;18.10;99.90
1063;DHT22;520;50.932;6.962;2023-10-08T21:43:17;18.20;99.90
1063;DHT22;520;50.932;6.962;2023-10-08T21:50:33;18.20;99.90
1063;DHT22;520;50.932;6.962;2023-10-08T21:54:12;18.30;99.90
1063;DHT22;520;50.932;6.962;2023-10-08T22:11:23;18.00;99.90
1063;DHT22;520;50.932;6.962;2023-10-08T22:14:15;18.30;99.90
1063;DHT22;520;50.932;6.962;2023-10-08T22:18:04;18.20;99.90
1063;DHT22;520;50.932;6.962;2023-10-08T22:21:35;18.10;99.90
1063;DHT22;520;50.932;6.962;2023-10-08T22:37:15;18.30;99.90
1063;DHT22;520;50.932;6.962;2023-10-08T22:56:11;18.10;99.90
1063;DHT22;520;50.932;6.962;2023-10-08T23:07:04;18.00;99.90
1063;DHT22;520;50.932;6.962;2023-10-08T23:25:55;17.90;99.90
1063;DHT22;520;50.932;6.962;2023-10-08T23:40:01;17.60;99.90
1063;DHT22;520;50.932;6.962;2023-10-08T23:43:42;17.60;99.90
